createdAt,value
2019-04-11T00:01:53.561Z,6.57
2019-04-11T00:04:30.296Z,7.53
2019-04-11T00:07:05.889Z,7.13
2019-04-11T00:09:40.869Z,6.73
2019-04-11T00:12:15.070Z,6.57
2019-04-11T00:14:48.799Z,6.63
2019-04-11T00:17:22.764Z,6.30
2019-04-11T00:19:57.823Z,6.57
2019-04-11T00:22:31.804Z,6.47
2019-04-11T00:25:11.490Z,5.47
2019-04-11T00:27:46.392Z,7.87
2019-04-11T00:30:21.106Z,6.80
2019-04-11T00:32:56.050Z,7.10
2019-04-11T00:35:29.948Z,7.97
2019-04-11T00:38:05.479Z,6.87
2019-04-11T00:40:41.526Z,7.43
2019-04-11T00:43:28.079Z,6.00
2019-04-11T00:45:51.927Z,6.50
2019-04-11T00:48:26.183Z,6.80
2019-04-11T00:51:04.895Z,6.83
2019-04-11T00:53:40.344Z,7.13
2019-04-11T00:56:13.820Z,6.80
2019-04-11T00:58:48.074Z,7.50
2019-04-11T01:01:22.000Z,6.33
2019-04-11T01:03:57.538Z,6.33
2019-04-11T01:06:32.190Z,7.77
2019-04-11T01:09:06.877Z,10.23
2019-04-11T01:11:40.576Z,8.13
2019-04-11T01:14:15.398Z,8.70
2019-04-11T01:16:51.289Z,6.43
2019-04-11T01:19:26.774Z,6.70
2019-04-11T01:22:01.643Z,7.77
2019-04-11T01:24:35.621Z,6.87
2019-04-11T01:27:09.798Z,9.20
2019-04-11T01:29:44.005Z,8.00
2019-04-11T01:32:18.048Z,7.03
2019-04-11T01:34:53.101Z,8.87
2019-04-11T01:37:28.062Z,13.07
2019-04-11T01:40:03.395Z,6.73
2019-04-11T01:42:37.611Z,8.93
2019-04-11T01:45:11.550Z,9.60
2019-04-11T01:48:03.630Z,9.57
2019-04-11T01:50:37.578Z,6.87
2019-04-11T01:53:11.115Z,7.30
2019-04-11T01:55:45.040Z,9.73
2019-04-11T01:58:18.550Z,9.00
2019-04-11T02:00:59.318Z,9.03
2019-04-11T02:03:51.729Z,7.07
2019-04-11T02:06:26.341Z,7.93
2019-04-11T02:09:03.931Z,7.67
2019-04-11T02:11:38.077Z,8.17
2019-04-11T02:14:16.209Z,7.40
2019-04-11T02:16:49.643Z,9.07
2019-04-11T02:19:23.865Z,7.73
2019-04-11T02:22:22.305Z,7.50
2019-04-11T02:25:02.328Z,7.70
2019-04-11T02:27:36.539Z,8.17
2019-04-11T02:30:14.384Z,9.00
2019-04-11T02:32:49.825Z,7.83
2019-04-11T02:35:24.216Z,8.90
2019-04-11T02:37:59.159Z,9.57
2019-04-11T02:40:33.342Z,6.10
2019-04-11T02:43:09.150Z,9.63
2019-04-11T02:45:55.318Z,7.07
2019-04-11T02:48:18.500Z,6.90
2019-04-11T02:50:52.175Z,12.50
2019-04-11T02:53:26.871Z,4.93
2019-04-11T02:56:01.147Z,10.40
2019-04-11T02:58:36.924Z,6.97
2019-04-11T03:01:13.334Z,5.73
2019-04-11T03:03:47.471Z,8.80
2019-04-11T03:06:21.560Z,5.03
2019-04-11T03:08:57.341Z,6.50
2019-04-11T03:11:34.585Z,6.03
2019-04-11T03:14:09.789Z,5.93
2019-04-11T03:16:56.804Z,5.87
2019-04-11T03:19:35.670Z,6.97
2019-04-11T03:21:57.224Z,12.07
2019-04-11T03:24:33.145Z,5.73
2019-04-11T03:27:07.863Z,7.43
2019-04-11T03:29:43.132Z,7.37
2019-04-11T03:33:04.552Z,7.77
2019-04-11T03:35:34.832Z,6.93
2019-04-11T03:37:53.917Z,5.90
2019-04-11T03:40:22.649Z,6.17
2019-04-11T03:42:53.908Z,6.00
2019-04-11T03:45:38.536Z,9.13
2019-04-11T03:48:10.847Z,3.67
2019-04-11T03:50:31.967Z,7.30
2019-04-11T03:53:06.508Z,2.80
2019-04-11T03:55:39.605Z,5.23
2019-04-11T03:58:13.312Z,4.30
2019-04-11T04:00:50.797Z,7.17
2019-04-11T04:03:24.475Z,6.73
2019-04-11T04:06:00.012Z,3.53
2019-04-11T04:08:34.238Z,3.43
2019-04-11T04:11:26.613Z,4.00
2019-04-11T04:14:21.471Z,8.13
2019-04-11T04:17:16.963Z,8.47
2019-04-11T04:20:08.919Z,5.57
2019-04-11T04:22:57.176Z,6.47
2019-04-11T04:25:32.477Z,6.23
2019-04-11T04:28:07.503Z,3.30
2019-04-11T04:30:43.286Z,4.93
2019-04-11T04:33:17.064Z,7.07
2019-04-11T04:35:51.800Z,10.53
2019-04-11T04:38:27.336Z,8.10
2019-04-11T04:41:16.275Z,6.77
2019-04-11T04:43:38.917Z,8.00
2019-04-11T04:46:29.966Z,10.10
2019-04-11T04:48:49.420Z,7.93
2019-04-11T04:51:24.336Z,9.43
2019-04-11T04:53:59.897Z,8.27
2019-04-11T04:56:34.938Z,9.00
2019-04-11T04:59:10.090Z,6.63
2019-04-11T05:01:48.369Z,5.13
2019-04-11T05:04:31.653Z,5.10
2019-04-11T05:07:23.444Z,12.70
2019-04-11T05:10:03.249Z,10.13
2019-04-11T05:13:03.390Z,12.10
2019-04-11T05:15:48.991Z,7.73
2019-04-11T05:18:28.293Z,12.07
2019-04-11T05:21:06.056Z,9.13
2019-04-11T05:23:43.374Z,9.00
2019-04-11T05:26:35.545Z,7.07
2019-04-11T05:29:19.582Z,7.23
2019-04-11T05:32:07.504Z,8.07
2019-04-11T05:35:03.006Z,5.33
2019-04-11T05:37:40.861Z,4.60
2019-04-11T05:40:41.920Z,8.80
2019-04-11T05:43:26.816Z,7.20
2019-04-11T05:45:58.389Z,6.00
2019-04-11T05:49:13.433Z,6.47
2019-04-11T05:52:18.019Z,9.30
2019-04-11T05:55:01.191Z,6.87
2019-04-11T05:58:05.863Z,10.03
2019-04-11T06:01:18.066Z,8.47
2019-04-11T06:04:22.403Z,11.40
2019-04-11T06:07:29.733Z,10.00
2019-04-11T06:11:05.906Z,7.83
2019-04-11T06:14:09.290Z,8.40
2019-04-11T06:17:11.492Z,11.03
2019-04-11T06:20:29.335Z,7.30
2019-04-11T06:23:49.897Z,11.17
2019-04-11T06:27:06.823Z,18.00
2019-04-11T06:30:59.101Z,12.57
2019-04-11T06:34:06.920Z,9.13
2019-04-11T06:37:19.256Z,11.73
2019-04-11T06:47:34.749Z,11.03
2019-04-11T06:50:51.504Z,10.90
2019-04-11T06:54:06.202Z,8.90
2019-04-11T06:57:21.986Z,7.97
2019-04-11T07:00:51.512Z,10.23
2019-04-11T07:03:55.269Z,9.90
2019-04-11T07:07:04.401Z,9.10
2019-04-11T07:10:24.583Z,12.37
2019-04-11T07:13:22.708Z,10.37
2019-04-11T07:16:27.736Z,10.90
2019-04-11T07:19:37.294Z,15.40
2019-04-11T07:22:46.633Z,13.77
2019-04-11T07:26:38.954Z,10.23
2019-04-11T07:30:05.173Z,10.33
2019-04-11T07:32:45.109Z,12.53
2019-04-11T07:36:56.115Z,12.00
2019-04-11T07:40:09.838Z,14.87
2019-04-11T07:46:45.712Z,27.90
2019-04-11T07:50:06.177Z,34.33
2019-04-11T07:53:05.315Z,50.23
2019-04-11T07:56:05.298Z,52.73
2019-04-11T07:59:10.692Z,64.43
2019-04-11T08:02:24.302Z,16.87
2019-04-11T08:05:36.683Z,11.57
2019-04-11T08:12:08.819Z,6.80
2019-04-11T08:15:42.171Z,5.00
2019-04-11T08:19:10.108Z,6.80
2019-04-11T08:22:01.026Z,10.53
2019-04-11T08:24:56.567Z,4.37
2019-04-11T08:28:00.766Z,13.40
2019-04-11T08:31:16.243Z,10.03
2019-04-11T08:34:05.000Z,4.70
2019-04-11T08:37:05.923Z,3.40
2019-04-11T08:39:57.622Z,7.17
2019-04-11T08:43:15.136Z,8.97
2019-04-11T08:46:57.855Z,10.83
2019-04-11T08:50:10.265Z,7.17
2019-04-11T08:53:12.810Z,7.43
2019-04-11T09:00:44.323Z,5.60
2019-04-11T09:04:07.411Z,5.97
2019-04-11T09:06:59.742Z,4.03
2019-04-11T09:10:07.312Z,6.20
2019-04-11T09:13:39.736Z,2.43
2019-04-11T09:16:52.032Z,3.10
2019-04-11T09:20:11.588Z,2.90
2019-04-11T09:23:23.802Z,3.07
2019-04-11T09:26:36.305Z,5.73
2019-04-11T09:29:52.789Z,5.70
2019-04-11T09:33:10.935Z,4.93
2019-04-11T09:35:59.797Z,5.80
2019-04-11T09:39:26.946Z,3.87
2019-04-11T09:42:53.962Z,3.60
2019-04-11T09:50:13.542Z,4.27
2019-04-11T09:53:06.297Z,3.53
2019-04-11T09:56:29.751Z,7.50
2019-04-11T09:59:41.219Z,11.37
2019-04-11T10:02:51.016Z,8.00
2019-04-11T10:06:05.231Z,14.20
2019-04-11T10:09:09.207Z,17.27
2019-04-11T10:12:31.854Z,12.40
2019-04-11T10:19:20.030Z,15.97
2019-04-11T10:22:56.277Z,10.83
2019-04-11T10:26:05.542Z,24.67
2019-04-11T10:29:12.944Z,16.10
2019-04-11T10:32:11.073Z,13.87
2019-04-11T10:35:48.326Z,14.10
2019-04-11T10:39:45.938Z,26.70
2019-04-11T10:42:42.814Z,23.23
2019-04-11T10:45:44.853Z,15.33
2019-04-11T10:48:33.508Z,19.70
2019-04-11T10:54:32.457Z,23.83
2019-04-11T10:57:36.797Z,11.67
2019-04-11T11:00:37.645Z,22.37
2019-04-11T11:03:22.231Z,21.97
2019-04-11T11:06:00.692Z,9.00
2019-04-11T11:09:04.517Z,17.87
2019-04-11T11:11:58.661Z,10.17
2019-04-11T11:21:14.331Z,18.00
2019-04-11T11:24:07.282Z,16.07
2019-04-11T11:27:02.886Z,17.60
2019-04-11T11:29:45.514Z,16.93
2019-04-11T11:32:35.652Z,8.50
2019-04-11T11:35:40.994Z,14.67
2019-04-11T11:38:30.310Z,14.63
2019-04-11T11:41:30.283Z,11.70
2019-04-11T11:44:05.410Z,19.67
2019-04-11T11:47:09.726Z,15.17
2019-04-11T11:50:03.306Z,23.07
2019-04-11T11:52:59.590Z,22.07
2019-04-11T11:55:53.567Z,7.60
2019-04-11T11:58:53.012Z,12.57
2019-04-11T12:01:27.522Z,14.30
2019-04-11T12:04:37.829Z,6.23
2019-04-11T12:07:16.780Z,13.00
2019-04-11T12:10:11.277Z,7.10
2019-04-11T12:13:11.165Z,8.47
2019-04-11T12:16:07.885Z,13.87
2019-04-11T12:19:10.807Z,14.90
2019-04-11T12:21:55.984Z,9.07
2019-04-11T12:24:43.105Z,12.77
2019-04-11T12:27:41.978Z,13.23
2019-04-11T12:30:42.087Z,16.87
2019-04-11T12:33:33.121Z,15.70
2019-04-11T12:36:12.453Z,12.37
2019-04-11T12:39:24.797Z,11.00
2019-04-11T12:42:02.401Z,5.27
2019-04-11T12:45:02.717Z,11.13
2019-04-11T12:47:43.345Z,11.57
2019-04-11T12:50:41.220Z,9.47
2019-04-11T12:53:20.148Z,12.43
2019-04-11T12:56:30.314Z,4.93
2019-04-11T13:02:27.411Z,15.77
2019-04-11T13:05:11.864Z,6.60
2019-04-11T13:08:31.108Z,12.17
2019-04-11T13:11:10.412Z,11.03
2019-04-11T13:14:12.869Z,8.37
2019-04-11T13:16:53.966Z,21.10
2019-04-11T13:20:04.098Z,13.63
2019-04-11T13:22:31.269Z,19.07
2019-04-11T13:25:26.036Z,13.67
2019-04-11T13:28:06.151Z,6.00
2019-04-11T13:31:24.329Z,7.40
2019-04-11T13:34:04.738Z,2.73
2019-04-11T13:37:11.797Z,7.93
2019-04-11T13:40:04.787Z,11.37
2019-04-11T13:43:23.740Z,9.10
2019-04-11T13:46:13.228Z,18.23
2019-04-11T13:49:24.134Z,23.67
2019-04-11T13:52:32.247Z,9.30
2019-04-11T13:55:27.721Z,8.97
2019-04-11T13:58:39.708Z,4.77
2019-04-11T14:01:22.070Z,6.83
2019-04-11T14:04:18.675Z,6.33
2019-04-11T14:06:54.241Z,6.63
2019-04-11T14:09:40.986Z,7.67
2019-04-11T14:13:13.755Z,4.40
2019-04-11T14:15:48.348Z,5.87
2019-04-11T14:18:47.933Z,4.77
2019-04-11T14:21:29.594Z,4.17
2019-04-11T14:24:41.540Z,3.80
2019-04-11T14:27:25.434Z,8.67
2019-04-11T14:30:18.641Z,9.53
2019-04-11T14:32:55.717Z,9.63
2019-04-11T14:36:15.531Z,13.70
2019-04-11T14:38:56.932Z,6.00
2019-04-11T14:41:52.717Z,4.57
2019-04-11T14:44:31.312Z,6.73
2019-04-11T14:47:44.490Z,10.20
2019-04-11T14:50:40.766Z,4.57
2019-04-11T14:53:38.428Z,6.70
2019-04-11T14:56:15.183Z,7.73
2019-04-11T14:59:06.979Z,3.63
2019-04-11T15:01:44.062Z,5.40
2019-04-11T15:04:37.347Z,9.23
2019-04-11T15:07:15.795Z,9.37
2019-04-11T15:10:00.245Z,16.63
2019-04-11T15:12:35.182Z,20.40
2019-04-11T15:15:44.599Z,29.43
2019-04-11T15:18:19.595Z,20.03
2019-04-11T15:21:02.127Z,16.27
2019-04-11T15:23:44.151Z,12.33
2019-04-11T15:26:46.412Z,12.83
2019-04-11T15:29:29.048Z,7.73
2019-04-11T15:32:31.703Z,6.20
2019-04-11T15:35:13.681Z,13.63
2019-04-11T15:38:11.015Z,8.77
2019-04-11T15:40:54.018Z,8.80
2019-04-11T15:43:55.683Z,3.60
2019-04-11T15:46:31.922Z,6.00
2019-04-11T15:49:30.187Z,9.80
2019-04-11T15:52:13.494Z,8.30
2019-04-11T15:55:22.608Z,6.13
2019-04-11T15:57:59.142Z,9.57
2019-04-11T16:00:57.218Z,11.13
2019-04-11T16:03:33.884Z,10.23
2019-04-11T16:06:27.291Z,10.20
2019-04-11T16:09:15.559Z,6.40
2019-04-11T16:11:59.662Z,6.83
2019-04-11T16:14:41.151Z,10.73
2019-04-11T16:17:44.586Z,8.57
2019-04-11T16:20:22.485Z,7.73
2019-04-11T16:23:29.726Z,5.27
2019-04-11T16:26:05.557Z,11.20
2019-04-11T16:29:15.000Z,13.67
2019-04-11T16:31:51.670Z,11.60
2019-04-11T16:34:51.563Z,8.20
2019-04-11T16:37:26.983Z,8.37
2019-04-11T16:40:18.259Z,9.13
2019-04-11T16:49:49.151Z,8.33
2019-04-11T16:52:23.705Z,10.43
2019-04-11T16:54:56.963Z,9.03
2019-04-11T16:57:35.285Z,12.07
2019-04-11T17:00:13.344Z,6.87
2019-04-11T17:02:50.110Z,9.30
2019-04-11T17:05:27.009Z,13.67
2019-04-11T17:08:26.505Z,8.03
2019-04-11T17:11:06.862Z,10.23
2019-04-11T17:13:43.335Z,12.63
2019-04-11T17:16:18.772Z,7.63
2019-04-11T17:18:57.671Z,10.40
2019-04-11T17:21:42.671Z,9.63
2019-04-11T17:24:16.751Z,9.93
2019-04-11T17:26:55.850Z,9.17
2019-04-11T17:29:34.323Z,12.30
2019-04-11T17:32:13.931Z,10.70
2019-04-11T17:35:01.998Z,8.37
2019-04-11T17:37:39.245Z,13.40
2019-04-11T17:40:16.834Z,6.97
2019-04-11T17:42:52.947Z,9.13
2019-04-11T17:45:25.870Z,9.43
2019-04-11T17:48:01.142Z,13.27
2019-04-11T17:50:35.634Z,11.20
2019-04-11T17:53:10.335Z,8.03
2019-04-11T17:55:49.501Z,10.17
2019-04-11T17:58:46.648Z,14.20
2019-04-11T18:01:23.770Z,11.97
2019-04-11T18:04:17.053Z,7.87
2019-04-11T18:07:04.116Z,10.73
2019-04-11T18:09:40.267Z,13.37
2019-04-11T18:12:15.184Z,12.50
2019-04-11T18:14:54.503Z,17.03
2019-04-11T18:17:28.341Z,14.27
2019-04-11T18:20:08.073Z,15.50
2019-04-11T18:22:46.558Z,24.87
2019-04-11T18:25:20.912Z,20.00
2019-04-11T18:27:56.150Z,27.33
2019-04-11T18:30:33.970Z,14.97
2019-04-11T18:33:10.910Z,23.03
2019-04-11T18:35:49.260Z,35.97
2019-04-11T18:38:36.473Z,43.63
2019-04-11T18:41:14.855Z,44.10
2019-04-11T18:43:56.442Z,41.87
2019-04-11T18:46:30.989Z,39.43
2019-04-11T18:49:08.920Z,61.70
2019-04-11T18:51:44.105Z,54.23
2019-04-11T18:54:19.139Z,67.73
2019-04-11T18:57:10.434Z,86.40
2019-04-11T18:59:46.984Z,83.57
2019-04-11T19:02:21.213Z,89.40
2019-04-11T19:04:57.772Z,64.77
2019-04-11T19:07:42.811Z,104.07
2019-04-11T19:10:16.875Z,118.10
2019-04-11T19:12:52.753Z,91.77
2019-04-11T19:15:29.939Z,77.47
2019-04-11T19:18:06.639Z,103.17
2019-04-11T19:20:39.772Z,98.20
2019-04-11T19:23:25.414Z,93.87
2019-04-11T19:26:01.315Z,83.50
2019-04-11T19:28:36.562Z,82.23
2019-04-11T19:31:12.288Z,75.40
2019-04-11T19:33:47.169Z,53.00
2019-04-11T19:36:21.941Z,114.83
2019-04-11T19:39:01.164Z,74.93
2019-04-11T19:41:36.478Z,77.50
2019-04-11T19:44:10.777Z,72.77
2019-04-11T19:46:45.510Z,75.47
2019-04-11T19:49:21.343Z,106.87
2019-04-11T19:51:55.303Z,81.57
2019-04-11T19:54:32.699Z,86.23
2019-04-11T19:57:07.023Z,63.33
2019-04-11T19:59:44.228Z,63.97
2019-04-11T20:02:23.518Z,53.80
2019-04-11T20:04:58.421Z,52.77
2019-04-11T20:07:41.326Z,65.53
2019-04-11T20:10:15.008Z,43.43
2019-04-11T20:12:56.166Z,31.93
2019-04-11T20:15:36.859Z,81.00
2019-04-11T20:18:07.013Z,55.07
2019-04-11T20:20:43.427Z,59.07
2019-04-11T20:23:18.420Z,35.60
2019-04-11T20:25:53.252Z,56.30
2019-04-11T20:28:27.200Z,46.80
2019-04-11T20:31:01.184Z,14.70
2019-04-11T20:33:34.948Z,13.03
2019-04-11T20:36:11.181Z,13.60
2019-04-11T20:38:44.776Z,12.87
2019-04-11T20:41:22.993Z,12.90
2019-04-11T20:43:58.619Z,10.60
2019-04-11T20:46:32.592Z,11.90
2019-04-11T20:49:06.497Z,10.50
2019-04-11T20:51:42.021Z,15.37
2019-04-11T20:54:16.321Z,10.03
2019-04-11T20:56:50.600Z,7.47
2019-04-11T20:59:34.058Z,8.73
2019-04-11T21:02:00.149Z,10.90
2019-04-11T21:04:37.749Z,7.93
2019-04-11T21:07:14.831Z,7.57
2019-04-11T21:09:50.545Z,6.77
2019-04-11T21:12:24.511Z,3.10
2019-04-11T21:14:58.651Z,6.07
2019-04-11T21:17:35.660Z,4.57
2019-04-11T21:20:09.953Z,4.97
2019-04-11T21:22:49.063Z,7.23
2019-04-11T21:25:26.059Z,4.70
2019-04-11T21:28:01.601Z,7.67
2019-04-11T21:30:36.118Z,9.23
2019-04-11T21:33:11.284Z,10.13
2019-04-11T21:35:45.555Z,12.00
2019-04-11T21:38:19.433Z,8.87
2019-04-11T21:40:55.552Z,6.23
2019-04-11T21:43:46.199Z,13.80
2019-04-11T21:46:20.201Z,9.90
2019-04-11T21:48:54.035Z,9.60
2019-04-11T21:51:28.548Z,10.63
2019-04-11T21:54:02.023Z,10.70
2019-04-11T21:56:36.490Z,7.47
2019-04-11T21:59:10.543Z,6.57
2019-04-11T22:01:54.208Z,4.13
2019-04-11T22:04:30.945Z,4.17
2019-04-11T22:07:03.345Z,3.60
2019-04-11T22:09:39.148Z,8.77
2019-04-11T22:12:13.275Z,6.47
2019-04-11T22:14:46.730Z,5.03
2019-04-11T22:17:20.923Z,5.73
2019-04-11T22:19:54.290Z,5.73
2019-04-11T22:22:28.502Z,6.13
2019-04-11T22:25:01.725Z,4.73
2019-04-11T22:27:35.418Z,9.23
2019-04-11T22:30:10.315Z,5.00
2019-04-11T22:32:45.486Z,5.17
2019-04-11T22:35:18.815Z,3.93
2019-04-11T22:37:52.664Z,4.07
2019-04-11T22:40:26.096Z,6.57
2019-04-11T22:42:59.673Z,4.20
2019-04-11T22:45:37.664Z,5.63
2019-04-11T22:48:11.252Z,3.63
2019-04-11T22:50:50.002Z,4.33
2019-04-11T22:53:24.053Z,2.43
2019-04-11T22:55:58.908Z,3.20
2019-04-11T22:58:33.700Z,5.07
2019-04-11T23:01:07.186Z,5.83
2019-04-11T23:03:47.594Z,4.40
2019-04-11T23:06:21.086Z,5.63
2019-04-11T23:08:54.686Z,2.37
2019-04-11T23:11:30.899Z,2.67
2019-04-11T23:14:04.560Z,4.17
2019-04-11T23:16:37.624Z,2.60
2019-04-11T23:19:13.710Z,4.93
2019-04-11T23:21:46.315Z,3.33
2019-04-11T23:24:20.015Z,2.73
2019-04-11T23:26:53.141Z,2.23
2019-04-11T23:29:26.726Z,3.00
2019-04-11T23:31:59.823Z,3.33
2019-04-11T23:34:33.503Z,4.13
2019-04-11T23:37:06.498Z,3.90
2019-04-11T23:39:40.650Z,2.47
2019-04-11T23:42:13.853Z,3.03
2019-04-11T23:44:47.889Z,4.53
2019-04-11T23:47:25.658Z,4.53
2019-04-11T23:50:00.782Z,2.23
2019-04-11T23:52:37.157Z,3.10
2019-04-11T23:55:12.617Z,2.27
2019-04-11T23:57:46.083Z,3.40
